Time;durP1;ratioP1;P1;durP2;ratioP2;P2;SDS_P1;SDS_P2;PMS_P1;PMS_P2;Temp;Humidity;BMP_temperature;BMP_pressure;BME280_temperature;BME280_humidity;BME280_pressure;Samples;Min_cycle;Max_cycle;Signal;HPM_P1;HPM_P2
2022/06/10 00:00:12;;;;;;;8.32;3.58;;;;;;;17.41;69.41;94026.69;5070723;28;20056;-73
2022/06/10 00:02:38;;;;;;;4.15;3.75;;;;;;;17.40;69.49;94016.34;5071050;28;20060;-73
2022/06/10 00:05:04;;;;;;;4.03;3.63;;;;;;;17.37;69.76;94014.13;5071930;28;20051;-73
2022/06/10 00:07:34;;;;;;;4.68;3.60;;;;;;;17.45;69.68;94021.06;5070523;28;20048;-73
2022/06/10 00:10:00;;;;;;;4.72;3.70;;;;;;;17.42;69.47;94007.28;5053574;28;20037;-72
2022/06/10 00:12:25;;;;;;;7.18;3.85;;;;;;;17.48;69.60;94020.69;5072380;28;20033;-73
2022/06/10 00:14:51;;;;;;;4.65;3.58;;;;;;;17.51;69.23;94020.28;5070331;28;20036;-73
2022/06/10 00:17:17;;;;;;;5.95;3.63;;;;;;;17.50;69.88;94016.06;5070490;28;20040;-73
2022/06/10 00:19:43;;;;;;;3.92;3.50;;;;;;;17.51;69.54;94030.81;5070477;28;20051;-73
2022/06/10 00:22:09;;;;;;;4.97;3.50;;;;;;;17.46;69.86;94026.09;5070859;28;20064;-73
2022/06/10 00:24:34;;;;;;;4.20;3.15;;;;;;;17.39;70.26;94020.81;5071324;28;20032;-72
2022/06/10 00:26:59;;;;;;;5.97;3.30;;;;;;;17.40;70.52;94014.53;5071763;28;20032;-73
2022/06/10 00:29:25;;;;;;;6.25;3.40;;;;;;;17.44;70.70;94017.63;5070084;28;20040;-72
2022/06/10 00:31:50;;;;;;;5.85;3.22;;;;;;;17.42;70.48;94025.66;5072029;28;20067;-72
2022/06/10 00:34:16;;;;;;;5.68;3.15;;;;;;;17.40;71.03;94014.53;5053506;28;20490;-73
2022/06/10 00:36:41;;;;;;;4.75;3.50;;;;;;;17.27;71.35;94009.16;5071732;28;20433;-73
2022/06/10 00:39:07;;;;;;;3.90;3.30;;;;;;;17.35;71.30;94019.53;5070123;28;20103;-72
2022/06/10 00:41:32;;;;;;;4.65;4.13;;;;;;;17.36;71.08;94018.56;5071496;28;20501;-72
2022/06/10 00:43:58;;;;;;;6.22;4.50;;;;;;;17.37;71.36;94008.88;5069716;28;20421;-72
2022/06/10 00:46:35;;;;;;;4.75;4.30;;;;;;;17.39;71.20;94009.50;5068575;28;20086;-72
2022/06/10 00:49:07;;;;;;;6.05;4.43;;;;;;;17.43;71.26;94010.72;5071122;28;20033;-73
2022/06/10 00:51:43;;;;;;;6.22;4.72;;;;;;;17.42;71.25;94012.56;5071442;28;20064;-73
2022/06/10 00:54:30;;;;;;;6.35;4.50;;;;;;;17.41;71.40;94016.19;5069842;28;20033;-73
2022/06/10 00:57:09;;;;;;;5.13;4.63;;;;;;;17.41;71.36;94007.47;5070977;28;20072;-73
2022/06/10 00:59:40;;;;;;;5.55;5.00;;;;;;;17.37;71.47;94008.88;5069648;28;20028;-72
2022/06/10 01:02:08;;;;;;;6.55;4.88;;;;;;;17.41;71.33;94008.31;5053508;28;20083;-72
2022/06/10 01:04:34;;;;;;;5.43;4.50;;;;;;;17.35;71.79;94006.41;5069654;28;20016;-73
2022/06/10 01:07:00;;;;;;;7.15;4.72;;;;;;;17.36;71.66;94020.38;5069777;28;20082;-73
2022/06/10 01:09:27;;;;;;;4.63;4.22;;;;;;;17.30;71.89;94008.81;5053031;28;20029;-72
2022/06/10 01:12:05;;;;;;;4.43;4.03;;;;;;;17.24;72.10;94016.59;5053457;28;20032;-73
2022/06/10 01:14:59;;;;;;;5.22;3.90;;;;;;;17.23;72.37;94007.94;5069267;28;20555;-73
2022/06/10 01:17:40;;;;;;;7.15;4.20;;;;;;;17.25;72.11;94011.19;5071282;28;20032;-73
2022/06/10 01:20:31;;;;;;;4.70;4.20;;;;;;;17.17;72.39;94014.72;5052515;28;20502;-73
2022/06/10 01:23:38;;;;;;;7.53;4.18;;;;;;;17.12;72.64;94003.97;5055298;28;20028;-72
2022/06/10 01:29:50;;;;;;;6.90;4.32;;;;;;;17.11;72.63;94009.44;5063520;28;20039;-73
2022/06/10 01:32:33;;;;;;;7.00;3.92;;;;;;;17.04;71.58;94008.53;5053999;28;20178;-73
2022/06/10 01:35:11;;;;;;;4.93;3.53;;;;;;;17.07;71.31;94002.91;5036152;28;20122;-73
2022/06/10 01:37:40;;;;;;;5.45;3.47;;;;;;;17.01;71.00;93998.41;5069021;28;20040;-72
2022/06/10 01:40:18;;;;;;;3.88;3.42;;;;;;;16.96;70.68;94007.63;5068876;28;20085;-73
2022/06/10 01:42:55;;;;;;;3.88;3.35;;;;;;;16.96;70.38;94006.84;5069278;28;20078;-73
2022/06/10 01:45:39;;;;;;;5.00;3.45;;;;;;;16.91;70.56;94010.03;5069041;28;20174;-73
2022/06/10 01:48:06;;;;;;;5.00;3.20;;;;;;;16.87;70.72;94011.38;5069468;28;20520;-72
2022/06/10 01:50:34;;;;;;;4.82;3.30;;;;;;;16.89;71.18;94005.97;5068972;28;20032;-73
2022/06/10 01:53:07;;;;;;;7.00;3.60;;;;;;;16.84;70.70;94003.88;5070559;28;20029;-73
2022/06/10 01:55:35;;;;;;;5.85;3.38;;;;;;;16.76;70.72;93996.09;5069060;28;20036;-73
2022/06/10 01:58:26;;;;;;;4.88;3.65;;;;;;;16.71;71.22;93993.22;5069134;28;20025;-72
2022/06/10 02:00:54;;;;;;;4.70;3.40;;;;;;;16.78;71.58;94004.63;5068858;28;20072;-73
2022/06/10 02:03:25;;;;;;;6.65;3.85;;;;;;;16.79;71.99;94006.25;5052708;28;20521;-73
2022/06/10 02:05:54;;;;;;;7.50;3.80;;;;;;;16.70;71.84;94002.09;5068584;28;20411;-73
2022/06/10 02:08:29;;;;;;;6.20;3.47;;;;;;;16.73;71.96;93999.09;5052668;28;20029;-72
2022/06/10 02:11:01;;;;;;;5.35;3.90;;;;;;;16.80;71.46;94007.88;5068856;28;20037;-73
2022/06/10 02:13:30;;;;;;;5.20;3.75;;;;;;;16.79;71.67;94018.56;5052789;28;20111;-73
2022/06/10 02:16:00;;;;;;;5.57;3.60;;;;;;;16.79;71.69;94016.72;5069164;28;20033;-72
2022/06/10 02:19:06;;;;;;;6.07;4.20;;;;;;;16.78;72.34;94016.94;5068864;28;20078;-73
2022/06/10 02:21:57;;;;;;;4.32;3.92;;;;;;;16.76;72.33;94017.06;5051646;28;20045;-73
2022/06/10 02:24:37;;;;;;;5.78;4.40;;;;;;;16.75;72.43;94021.50;5053441;28;20517;-73
2022/06/10 02:27:17;;;;;;;8.93;4.50;;;;;;;16.75;72.91;94023.31;5036231;28;20127;-73
2022/06/10 02:30:01;;;;;;;5.10;4.20;;;;;;;16.78;73.76;94025.59;5049088;28;20032;-73
2022/06/10 02:32:27;;;;;;;5.18;4.07;;;;;;;16.79;74.12;94031.66;5033926;28;20037;-72
2022/06/10 02:34:54;;;;;;;6.80;4.18;;;;;;;16.72;73.61;94031.56;5053443;28;20028;-73
2022/06/10 02:37:23;;;;;;;8.98;4.20;;;;;;;16.72;74.13;94028.94;5072467;28;20037;-72
2022/06/10 02:40:09;;;;;;;5.25;4.38;;;;;;;16.72;73.69;94034.19;5056180;28;20070;-73
2022/06/10 02:43:00;;;;;;;5.25;4.50;;;;;;;16.73;73.85;94035.81;5072171;28;20035;-73
2022/06/10 02:45:38;;;;;;;6.15;4.38;;;;;;;16.72;73.71;94042.06;5037736;28;20045;-73
2022/06/10 02:48:14;;;;;;;6.88;4.10;;;;;;;16.72;73.33;94036.81;5064627;28;20028;-72
2022/06/10 02:50:39;;;;;;;5.32;4.38;;;;;;;16.64;73.53;94044.78;5071352;28;20044;-73
2022/06/10 02:53:06;;;;;;;5.43;4.30;;;;;;;16.66;72.99;94040.97;5071234;28;20178;-72
2022/06/10 02:55:31;;;;;;;5.75;3.70;;;;;;;16.64;72.77;94044.78;5054551;28;20033;-73
2022/06/10 03:01:13;;;;;;;4.00;3.60;;;;;;;16.61;73.05;94037.28;5072372;28;20093;-73
2022/06/10 03:03:50;;;;;;;6.97;3.95;;;;;;;16.52;73.14;94040.00;5073188;28;20033;-73
2022/06/10 03:06:32;;;;;;;4.05;3.65;;;;;;;16.51;73.15;94040.16;5073404;28;20070;-72
2022/06/10 03:09:02;;;;;;;4.32;3.90;;;;;;;16.41;73.23;94040.44;5039122;28;20035;-73
2022/06/10 03:11:59;;;;;;;5.10;3.83;;;;;;;16.41;73.15;94032.59;5071729;28;20125;-73
2022/06/10 03:14:27;;;;;;;7.15;3.50;;;;;;;16.40;73.41;94038.81;5038974;28;20810;-73
2022/06/10 03:17:11;;;;;;;4.15;3.58;;;;;;;16.43;73.60;94042.88;5073455;28;20036;-73
2022/06/10 03:19:58;;;;;;;4.78;3.97;;;;;;;16.47;73.95;94039.72;5071801;28;20429;-73
2022/06/10 03:22:29;;;;;;;3.95;3.55;;;;;;;16.51;74.04;94043.59;5073625;28;20485;-73
2022/06/10 03:25:13;;;;;;;5.55;3.80;;;;;;;16.52;73.57;94044.44;5072599;28;20086;-73
2022/06/10 03:27:47;;;;;;;5.55;4.10;;;;;;;16.52;73.25;94040.00;5071479;28;20089;-72
2022/06/10 03:30:18;;;;;;;5.07;3.60;;;;;;;16.54;74.25;94043.22;5072405;28;20525;-72
2022/06/10 03:33:03;;;;;;;4.95;3.67;;;;;;;16.56;73.77;94043.06;5055294;28;20415;-73
2022/06/10 03:35:35;;;;;;;4.85;4.05;;;;;;;16.58;74.02;94046.31;5040094;28;20074;-73
2022/06/10 03:38:03;;;;;;;4.47;3.45;;;;;;;16.59;73.56;94047.13;5070922;28;20062;-73
2022/06/10 03:40:29;;;;;;;4.60;3.83;;;;;;;16.63;73.74;94048.38;5053828;28;20065;-73
2022/06/10 03:42:56;;;;;;;4.82;4.28;;;;;;;16.64;73.52;94052.63;5071002;28;20039;-73
2022/06/10 03:45:25;;;;;;;5.05;4.10;;;;;;;16.63;73.49;94056.25;5054505;28;20028;-73
2022/06/10 03:47:50;;;;;;;6.18;3.80;;;;;;;16.62;73.49;94057.25;5071264;28;20397;-73
2022/06/10 03:50:18;;;;;;;4.60;3.97;;;;;;;16.61;73.82;94055.63;5054226;28;20024;-73
2022/06/10 03:52:44;;;;;;;6.30;4.00;;;;;;;16.63;73.24;94058.84;5054526;28;20420;-73
2022/06/10 03:55:10;;;;;;;6.97;4.03;;;;;;;16.56;74.15;94050.91;5054520;28;20178;-73
2022/06/10 03:57:36;;;;;;;5.82;4.05;;;;;;;16.66;74.88;94071.59;5070267;28;20585;-73
2022/06/10 04:00:02;;;;;;;3.83;3.50;;;;;;;16.61;75.31;94050.38;5070335;28;20033;-72
2022/06/10 04:02:28;;;;;;;5.78;4.00;;;;;;;16.69;75.27;94073.88;5037587;28;20021;-73
2022/06/10 04:04:53;;;;;;;4.78;4.00;;;;;;;16.69;75.31;94069.44;5070904;28;20441;-73
2022/06/10 04:07:19;;;;;;;6.97;3.92;;;;;;;16.68;75.08;94064.38;5070494;28;20036;-73
2022/06/10 04:09:48;;;;;;;6.13;4.32;;;;;;;16.64;74.22;94053.44;5054078;28;20037;-72
2022/06/10 04:12:15;;;;;;;4.90;3.92;;;;;;;16.65;74.28;94059.50;5070850;28;20040;-73
2022/06/10 04:14:41;;;;;;;5.00;4.22;;;;;;;16.56;73.99;94052.72;5070409;28;20033;-73
2022/06/10 04:17:06;;;;;;;6.32;3.90;;;;;;;16.49;74.44;94060.50;5070844;28;20028;-73
2022/06/10 04:19:32;;;;;;;4.40;3.92;;;;;;;16.49;74.51;94057.88;5053497;28;20414;-73
2022/06/10 04:21:57;;;;;;;7.13;4.15;;;;;;;16.56;74.43;94065.84;5071623;28;20044;-73
2022/06/10 04:24:23;;;;;;;6.47;3.78;;;;;;;16.51;74.26;94069.81;5070146;28;20036;-73
2022/06/10 04:26:48;;;;;;;4.38;3.70;;;;;;;16.48;74.35;94064.94;5070470;28;20422;-73
2022/06/10 04:29:14;;;;;;;5.75;3.85;;;;;;;16.57;74.22;94059.59;5053818;28;20037;-73
2022/06/10 04:31:39;;;;;;;6.13;3.92;;;;;;;16.60;74.59;94059.22;5070318;28;20044;-73
2022/06/10 04:34:05;;;;;;;4.65;4.25;;;;;;;16.62;74.16;94063.28;5035094;28;20516;-73
2022/06/10 04:36:30;;;;;;;4.45;3.70;;;;;;;16.56;74.27;94057.97;5024993;28;20029;-73
2022/06/10 04:38:56;;;;;;;8.45;4.40;;;;;;;16.51;74.17;94055.88;5047205;28;20032;-72
2022/06/10 04:41:21;;;;;;;4.53;3.67;;;;;;;16.62;74.24;94079.03;5064697;28;20028;-72
2022/06/10 04:43:47;;;;;;;4.55;4.03;;;;;;;16.70;74.05;94078.13;5043420;28;20239;-73
2022/06/10 04:46:21;;;;;;;5.68;3.83;;;;;;;16.66;73.95;94079.47;5066155;28;20494;-72
2022/06/10 04:48:46;;;;;;;4.15;3.72;;;;;;;16.66;74.24;94074.22;5054212;28;20036;-72
2022/06/10 04:51:12;;;;;;;5.72;4.30;;;;;;;16.71;74.03;94083.16;5068040;28;20032;-73
2022/06/10 04:53:38;;;;;;;4.53;3.75;;;;;;;16.74;74.07;94076.75;5069741;28;20039;-73
2022/06/10 04:56:03;;;;;;;5.68;3.67;;;;;;;16.81;73.99;94082.13;5069265;28;20040;-73
2022/06/10 04:58:29;;;;;;;7.72;4.18;;;;;;;16.80;74.19;94080.47;5064082;28;20036;-73
2022/06/10 05:00:54;;;;;;;6.22;3.90;;;;;;;16.80;74.55;94083.09;5059296;28;20033;-73
2022/06/10 05:03:20;;;;;;;5.53;4.53;;;;;;;16.88;74.80;94085.63;5055745;28;20033;-72
2022/06/10 05:05:45;;;;;;;6.28;4.05;;;;;;;16.93;74.75;94086.72;5057531;28;20036;-73
2022/06/10 05:08:12;;;;;;;6.70;4.00;;;;;;;17.03;75.20;94085.63;5025727;28;20020;-72
2022/06/10 05:10:38;;;;;;;6.18;4.45;;;;;;;17.13;75.30;94091.38;5062942;28;20502;-75
2022/06/10 05:13:03;;;;;;;6.28;5.07;;;;;;;17.19;75.40;94088.03;5046492;28;20025;-72
2022/06/10 05:15:29;;;;;;;8.05;5.80;;;;;;;17.12;75.70;94095.00;5053224;28;20056;-73
2022/06/10 05:17:56;;;;;;;7.22;6.03;;;;;;;17.09;75.70;94090.94;5069910;28;20058;-73
2022/06/10 05:20:27;;;;;;;7.25;5.63;;;;;;;17.10;76.00;94102.25;5049918;28;20029;-72
2022/06/10 05:22:52;;;;;;;;;;;;;;;17.12;76.58;94108.13;5055524;28;20059;-73
2022/06/10 05:25:17;;;;;;;8.00;5.93;;;;;;;17.15;76.47;94115.63;5071201;28;20003;-72
2022/06/10 05:27:43;;;;;;;7.38;6.45;;;;;;;17.18;76.65;94117.88;5068167;28;20544;-72
2022/06/10 05:30:10;;;;;;;6.97;6.25;;;;;;;17.16;77.14;94112.84;5068437;28;20225;-73
2022/06/10 05:32:36;;;;;;;7.35;6.45;;;;;;;17.27;76.56;94106.28;5035659;28;20422;-73
2022/06/10 05:35:01;;;;;;;7.80;6.65;;;;;;;17.13;76.65;94091.38;5067946;28;20027;-73
2022/06/10 05:37:27;;;;;;;7.70;6.90;;;;;;;17.27;76.97;94106.28;5070400;28;20036;-73
2022/06/10 05:39:53;;;;;;;7.35;6.57;;;;;;;17.36;76.60;94112.25;5050379;28;20482;-72
2022/06/10 05:42:19;;;;;;;6.57;5.97;;;;;;;17.37;76.11;94108.63;5050576;28;20035;-73
2022/06/10 05:44:46;;;;;;;8.45;6.80;;;;;;;17.38;75.87;94099.72;5067587;28;20135;-73
2022/06/10 05:47:13;;;;;;;9.27;6.80;;;;;;;17.44;75.66;94109.50;5050484;28;20041;-72
2022/06/10 05:49:40;;;;;;;8.07;6.97;;;;;;;17.40;75.75;94095.91;5043364;28;20037;-72
2022/06/10 05:52:07;;;;;;;7.60;6.68;;;;;;;17.50;75.75;94105.31;5066643;28;20116;-72
2022/06/10 05:54:36;;;;;;;8.60;7.22;;;;;;;17.48;76.03;94102.06;5069699;28;20089;-73
2022/06/10 05:57:02;;;;;;;9.77;7.60;;;;;;;17.48;75.90;94105.50;5069292;28;20145;-73
2022/06/10 05:59:29;;;;;;;9.07;7.43;;;;;;;17.56;75.72;94108.00;5069809;28;20029;-74
2022/06/10 06:01:56;;;;;;;7.57;6.78;;;;;;;17.58;75.49;94111.25;5069445;28;20108;-73
2022/06/10 06:04:22;;;;;;;8.07;7.28;;;;;;;17.58;75.45;94111.25;5051674;28;20065;-72
2022/06/10 06:06:47;;;;;;;8.70;6.55;;;;;;;17.60;75.30;94114.50;5051826;28;20037;-73
2022/06/10 06:09:14;;;;;;;7.70;6.90;;;;;;;17.62;75.29;94117.75;5072808;28;20524;-73
2022/06/10 06:11:39;;;;;;;8.70;7.40;;;;;;;17.65;75.23;94117.38;5071142;28;20594;-73
2022/06/10 06:14:05;;;;;;;7.57;6.88;;;;;;;17.65;75.16;94116.56;5068597;28;20024;-73
2022/06/10 06:16:30;;;;;;;8.18;7.32;;;;;;;17.60;75.31;94117.13;5070617;28;20040;-72
2022/06/10 06:18:56;;;;;;;8.50;7.45;;;;;;;17.54;75.61;94122.31;5055564;28;20505;-73
2022/06/10 06:21:21;;;;;;;11.80;7.32;;;;;;;17.55;75.47;94134.44;5072061;28;20494;-73
2022/06/10 06:23:47;;;;;;;7.95;7.20;;;;;;;17.46;75.68;94128.50;5055017;28;20512;-73
2022/06/10 06:26:15;;;;;;;8.73;7.18;;;;;;;17.46;75.70;94127.69;5071951;28;20505;-73
2022/06/10 06:28:42;;;;;;;8.13;7.32;;;;;;;17.50;75.68;94128.97;5072157;28;20024;-73
2022/06/10 06:31:08;;;;;;;8.88;7.45;;;;;;;17.47;75.80;94129.31;5072464;28;20072;-73
2022/06/10 06:33:33;;;;;;;8.30;7.50;;;;;;;17.41;75.83;94125.59;5072475;28;20476;-73
2022/06/10 06:35:59;;;;;;;8.45;7.15;;;;;;;17.48;75.63;94130.94;5072235;28;20063;-73
2022/06/10 06:38:26;;;;;;;10.20;7.13;;;;;;;17.54;75.46;94138.88;5072526;28;20437;-73
2022/06/10 06:40:51;;;;;;;8.70;6.85;;;;;;;17.54;75.56;94127.56;5053298;28;20508;-73
2022/06/10 06:43:17;;;;;;;8.75;7.05;;;;;;;17.56;75.40;94129.00;5055184;28;20025;-72
2022/06/10 06:45:43;;;;;;;8.48;6.82;;;;;;;17.63;74.70;94131.69;5072285;28;20029;-73
2022/06/10 06:48:09;;;;;;;10.20;6.78;;;;;;;17.55;75.20;94130.03;5072178;28;20028;-73
2022/06/10 06:50:35;;;;;;;7.40;6.70;;;;;;;17.53;74.82;94139.88;5063279;28;20186;-72
2022/06/10 06:53:00;;;;;;;10.20;7.10;;;;;;;17.39;75.40;94132.88;5052444;28;20550;-73
2022/06/10 06:55:26;;;;;;;7.82;7.13;;;;;;;17.37;76.10;94138.28;5068086;28;20033;-73
2022/06/10 06:57:51;;;;;;;9.60;6.75;;;;;;;17.46;76.33;94139.00;5068325;28;20040;-72
2022/06/10 07:00:17;;;;;;;7.13;6.47;;;;;;;17.54;74.58;94133.63;5071091;28;20024;-73
2022/06/10 07:02:43;;;;;;;6.75;6.13;;;;;;;17.59;75.04;94136.53;5037520;28;20461;-72
2022/06/10 07:05:09;;;;;;;10.25;7.35;;;;;;;17.42;76.13;94116.75;5051523;28;20029;-72
2022/06/10 07:07:34;;;;;;;8.43;7.63;;;;;;;17.47;76.34;94130.13;5043302;28;20040;-71
2022/06/10 07:10:00;;;;;;;7.88;7.13;;;;;;;17.55;75.82;94134.44;5062482;28;20025;-72
2022/06/10 07:12:25;;;;;;;8.52;7.70;;;;;;;17.63;76.04;94139.56;5037801;28;20041;-72
2022/06/10 07:14:51;;;;;;;8.40;7.50;;;;;;;17.71;76.01;94141.28;5046211;28;20055;-72
2022/06/10 07:17:18;;;;;;;7.88;7.07;;;;;;;17.76;75.93;94134.47;5051364;28;20115;-72
2022/06/10 07:19:44;;;;;;;8.10;6.75;;;;;;;17.80;75.30;94130.50;5041532;28;20449;-72
2022/06/10 07:22:09;;;;;;;7.30;6.57;;;;;;;17.89;74.63;94122.50;5033770;28;20036;-72
2022/06/10 07:24:35;;;;;;;7.43;6.72;;;;;;;17.97;74.52;94120.56;5035770;28;20056;-72
2022/06/10 07:27:00;;;;;;;7.35;6.65;;;;;;;18.01;74.13;94131.50;5066034;28;20036;-72
2022/06/10 07:29:27;;;;;;;7.45;6.75;;;;;;;18.04;73.01;94131.09;5058735;28;20313;-72
2022/06/10 07:31:53;;;;;;;7.70;6.72;;;;;;;18.08;73.92;94138.44;5048713;28;20052;-72
2022/06/10 07:34:18;;;;;;;8.27;6.93;;;;;;;18.12;73.87;94141.50;5051550;28;20025;-72
2022/06/10 07:36:44;;;;;;;7.05;6.40;;;;;;;18.23;72.18;94143.59;5032911;28;20033;-72
2022/06/10 07:39:09;;;;;;;6.95;6.20;;;;;;;18.20;71.97;94146.63;5051105;28;20079;-72
2022/06/10 07:44:20;;;;;;;7.38;6.63;;;;;;;18.25;72.07;94138.97;5037342;28;20472;-72
2022/06/10 07:46:48;;;;;;;7.85;7.05;;;;;;;18.30;72.79;94131.34;5063513;28;20039;-72
2022/06/10 07:49:13;;;;;;;10.70;7.50;;;;;;;18.36;72.73;94132.38;5042140;28;20017;-72
2022/06/10 07:51:38;;;;;;;10.13;7.55;;;;;;;18.45;72.46;94140.94;5057892;28;20453;-71
2022/06/10 07:54:04;;;;;;;8.65;7.68;;;;;;;18.47;72.55;94137.13;5058654;28;20027;-71
2022/06/10 07:56:29;;;;;;;9.25;7.38;;;;;;;18.59;72.25;94142.66;5062851;28;20056;-72
2022/06/10 07:58:58;;;;;;;7.93;7.13;;;;;;;18.71;72.17;94141.09;5055748;28;20094;-72
2022/06/10 08:01:24;;;;;;;8.13;7.43;;;;;;;18.87;72.22;94141.84;5060783;28;20036;-72
2022/06/10 08:03:50;;;;;;;8.77;7.82;;;;;;;19.00;71.97;94147.19;5070443;28;20039;-72
2022/06/10 08:06:16;;;;;;;7.50;6.70;;;;;;;19.07;70.85;94131.41;5068549;28;20040;-72
2022/06/10 08:08:42;;;;;;;7.70;6.93;;;;;;;19.10;70.57;94131.81;5066494;28;20074;-71
2022/06/10 08:11:08;;;;;;;8.35;6.55;;;;;;;19.28;69.95;94143.63;5065186;28;20033;-72
2022/06/10 08:13:33;;;;;;;9.10;6.47;;;;;;;19.33;67.95;94138.59;5064596;28;20024;-72
2022/06/10 08:15:59;;;;;;;9.38;6.40;;;;;;;19.43;67.01;94139.84;5064015;28;20426;-72
2022/06/10 08:18:24;;;;;;;6.35;5.63;;;;;;;19.51;67.20;94136.25;5058536;28;20029;-71
2022/06/10 08:23:33;;;;;;;7.15;6.35;;;;;;;19.76;66.00;94141.00;5069872;28;20093;-72
2022/06/10 08:26:00;;;;;;;8.80;6.20;;;;;;;19.88;65.96;94149.94;5052115;28;20482;-71
2022/06/10 08:28:25;;;;;;;5.93;5.40;;;;;;;20.01;64.98;94155.22;5042810;28;20536;-73
2022/06/10 08:30:51;;;;;;;6.60;6.00;;;;;;;20.07;64.01;94146.50;5048374;28;20032;-72
2022/06/10 08:33:17;;;;;;;6.30;5.57;;;;;;;20.05;64.70;94143.25;5066851;28;20039;-72
2022/06/10 08:35:42;;;;;;;6.22;5.70;;;;;;;20.18;63.04;94149.56;5051271;28;20123;-72
2022/06/10 08:38:10;;;;;;;7.82;5.82;;;;;;;20.22;64.12;94153.41;5065929;28;20048;-72
2022/06/10 08:40:56;;;;;;;6.93;5.93;;;;;;;20.25;63.88;94156.47;5048181;28;20044;-72
2022/06/10 08:43:29;;;;;;;6.82;6.07;;;;;;;20.23;64.16;94155.88;5068508;28;20036;-72
2022/06/10 08:46:16;;;;;;;7.55;6.72;;;;;;;20.33;63.85;94158.09;5043610;28;20505;-73
2022/06/10 08:48:51;;;;;;;7.22;6.53;;;;;;;20.29;63.73;94162.16;5069565;28;20021;-72
2022/06/10 08:51:21;;;;;;;7.78;6.82;;;;;;;20.17;65.22;94163.75;5052828;28;20094;-72
2022/06/10 08:53:59;;;;;;;8.32;6.93;;;;;;;20.03;65.93;94160.28;5048779;28;20040;-72
2022/06/10 08:56:32;;;;;;;6.78;6.18;;;;;;;19.92;65.69;94167.00;5065177;28;20514;-72
2022/06/10 08:59:18;;;;;;;7.38;6.68;;;;;;;19.68;67.25;94176.25;5033656;28;20107;-72
2022/06/10 09:02:10;;;;;;;8.45;6.85;;;;;;;19.44;67.93;94174.91;5066672;28;20056;-72
2022/06/10 09:04:53;;;;;;;10.35;7.18;;;;;;;19.20;69.80;94178.88;5049728;28;20044;-72
2022/06/10 09:07:46;;;;;;;8.43;7.50;;;;;;;19.00;69.57;94181.41;5058285;28;20040;-72
2022/06/10 09:10:30;;;;;;;6.63;5.78;;;;;;;18.91;69.61;94179.91;5015267;28;20036;-72
2022/06/10 09:13:06;;;;;;;6.03;5.43;;;;;;;18.94;70.64;94176.88;5044233;28;20619;-73
2022/06/10 09:15:32;;;;;;;6.55;5.55;;;;;;;18.99;70.31;94174.50;5051222;28;20036;-72
2022/06/10 09:18:04;;;;;;;5.60;5.10;;;;;;;19.07;71.87;94158.53;5065213;28;20391;-72
2022/06/10 09:21:19;;;;;;;7.50;5.43;;;;;;;19.18;71.37;94171.16;5051459;28;20033;-72
2022/06/10 09:23:45;;;;;;;6.38;5.78;;;;;;;19.32;72.80;94179.91;5063749;28;20110;-72
2022/06/10 09:26:16;;;;;;;6.80;5.43;;;;;;;19.33;70.61;94167.56;5058906;28;20072;-72
2022/06/10 09:28:42;;;;;;;6.50;5.78;;;;;;;19.29;69.79;94177.69;5052724;28;20028;-72
2022/06/10 09:31:28;;;;;;;6.35;5.75;;;;;;;19.37;69.93;94174.88;5065711;28;20490;-73
2022/06/10 09:34:03;;;;;;;6.10;5.60;;;;;;;19.28;68.89;94178.72;5037703;28;20058;-73
2022/06/10 09:36:42;;;;;;;5.78;5.28;;;;;;;19.32;68.80;94161.50;5051892;28;20119;-73
2022/06/10 09:42:26;;;;;;;5.75;5.25;;;;;;;19.28;69.44;94181.34;5057980;28;20070;-73
2022/06/10 09:45:03;;;;;;;5.15;4.50;;;;;;;19.23;66.74;94175.03;5056446;28;20107;-73
2022/06/10 09:47:39;;;;;;;5.10;4.60;;;;;;;19.20;67.15;94176.22;5035360;28;20037;-74
2022/06/10 09:50:31;;;;;;;7.00;5.03;;;;;;;19.20;70.02;94184.13;5040903;28;20107;-72
2022/06/10 09:53:04;;;;;;;6.13;5.53;;;;;;;19.18;70.51;94186.94;5052250;28;20021;-72
2022/06/10 09:55:49;;;;;;;6.75;4.90;;;;;;;19.23;69.45;94186.38;5050073;28;20510;-72
2022/06/10 09:58:22;;;;;;;4.93;4.03;;;;;;;19.26;69.26;94196.50;5051236;28;20037;-72
2022/06/10 10:00:59;;;;;;;5.35;4.10;;;;;;;19.28;68.01;94196.28;5049388;28;20383;-73
2022/06/10 10:03:51;;;;;;;4.68;4.13;;;;;;;19.27;68.00;94199.94;5068133;28;20025;-72
2022/06/10 10:06:34;;;;;;;11.05;5.50;;;;;;;19.16;67.45;94209.22;5068916;28;20033;-72
2022/06/10 10:09:24;;;;;;;5.88;5.25;;;;;;;19.11;68.17;94214.22;5051014;28;20232;-72
2022/06/10 10:12:08;;;;;;;6.20;5.60;;;;;;;19.06;69.10;94214.03;5056157;28;20029;-73
2022/06/10 10:14:59;;;;;;;7.05;6.13;;;;;;;18.99;69.78;94198.19;5068329;28;20414;-72
2022/06/10 10:17:27;;;;;;;;;;;;;;;19.08;71.02;94209.34;5059253;28;20086;-72
2022/06/10 10:20:19;;;;;;;6.55;5.93;;;;;;;19.03;69.38;94209.97;5067431;28;19916;-73
2022/06/10 10:23:02;;;;;;;6.57;5.97;;;;;;;19.09;70.04;94224.97;5050076;28;20052;-72
2022/06/10 10:25:27;;;;;;;7.38;6.68;;;;;;;19.15;70.27;94224.19;5048340;28;20125;-72
2022/06/10 10:27:53;;;;;;;7.63;6.88;;;;;;;19.18;70.78;94220.38;5048698;28;20028;-73
2022/06/10 10:30:20;;;;;;;8.00;6.80;;;;;;;19.13;70.16;94217.50;5029623;28;20037;-72
2022/06/10 10:33:10;;;;;;;7.70;6.90;;;;;;;19.08;70.71;94214.63;5047131;28;20079;-73
2022/06/10 10:35:45;;;;;;;9.27;7.53;;;;;;;19.15;72.07;94224.19;5051825;28;20112;-72
2022/06/10 10:38:33;;;;;;;10.43;7.38;;;;;;;19.03;69.61;94224.91;5053049;28;20032;-72
2022/06/10 10:40:59;;;;;;;8.25;7.38;;;;;;;18.94;70.50;94227.72;5060026;28;20479;-72
2022/06/10 10:43:28;;;;;;;8.55;7.70;;;;;;;18.90;70.75;94226.47;5068067;28;20028;-72
2022/06/10 10:45:59;;;;;;;8.48;7.68;;;;;;;18.87;71.72;94226.03;5065715;28;20034;-72
2022/06/10 10:48:45;;;;;;;8.93;8.02;;;;;;;18.86;71.65;94219.13;5052044;28;20422;-72
2022/06/10 10:51:10;;;;;;;8.65;7.75;;;;;;;18.89;71.22;94229.31;5044822;28;20044;-73
2022/06/10 10:53:47;;;;;;;9.15;7.57;;;;;;;18.81;70.61;94229.44;5070619;28;20028;-73
2022/06/10 10:56:13;;;;;;;8.10;7.18;;;;;;;18.80;70.79;94233.88;5069799;28;20052;-73
2022/06/10 10:58:45;;;;;;;8.98;7.95;;;;;;;18.79;71.66;94223.56;5038882;28;20033;-73
2022/06/10 11:01:43;;;;;;;9.57;8.57;;;;;;;18.75;72.90;94231.03;5036378;28;20035;-73
2022/06/10 11:03:59;;;;;;;10.23;7.80;;;;;;;18.65;72.75;94226.06;5072206;28;20039;-73
2022/06/10 11:06:33;;;;;;;9.50;8.25;;;;;;;18.53;73.33;94211.81;5053471;28;20638;-73
2022/06/10 11:09:00;;;;;;;8.32;7.50;;;;;;;18.55;73.45;94215.03;5056038;28;20074;-73
2022/06/10 11:11:30;;;;;;;11.75;9.10;;;;;;;18.52;73.39;94218.03;5053700;28;20094;-73
2022/06/10 11:14:01;;;;;;;10.68;8.80;;;;;;;18.49;74.03;94221.06;5049025;28;20103;-73
2022/06/10 11:17:16;;;;;;;9.73;8.60;;;;;;;18.56;74.80;94221.13;5054935;28;20039;-73
2022/06/10 11:19:52;;;;;;;12.57;8.57;;;;;;;18.57;73.98;94210.41;5055120;28;20521;-72
2022/06/10 11:22:39;;;;;;;9.00;8.15;;;;;;;18.60;74.29;94211.84;5054658;28;20024;-73
2022/06/10 11:25:14;;;;;;;8.70;7.70;;;;;;;18.66;74.31;94209.25;5052375;28;20036;-73
2022/06/10 11:27:49;;;;;;;8.60;7.50;;;;;;;18.71;75.00;94212.13;5059057;28;20391;-73
2022/06/10 11:30:16;;;;;;;9.35;8.25;;;;;;;18.75;74.86;94204.72;5057901;28;20482;-73
2022/06/10 11:32:48;;;;;;;8.18;7.22;;;;;;;18.77;74.66;94205.31;5054677;28;20459;-73
2022/06/10 11:35:25;;;;;;;9.43;7.72;;;;;;;18.81;75.04;94206.56;5071577;28;20102;-73
2022/06/10 11:38:05;;;;;;;8.68;7.53;;;;;;;18.89;75.61;94221.41;5070120;28;20029;-73
2022/06/10 11:40:40;;;;;;;8.18;7.15;;;;;;;18.91;75.20;94217.56;5046643;28;20042;-73
2022/06/10 11:43:12;;;;;;;7.78;7.07;;;;;;;18.93;74.46;94210.28;5046355;28;20031;-73
2022/06/10 11:45:39;;;;;;;7.45;6.30;;;;;;;18.96;73.64;94214.34;5066422;28;20105;-73
2022/06/10 11:48:37;;;;;;;7.97;6.10;;;;;;;18.94;73.07;94206.66;5069105;28;20108;-73
2022/06/10 11:51:07;;;;;;;7.00;6.40;;;;;;;19.01;73.32;94209.34;5060843;28;20063;-73
2022/06/10 11:53:39;;;;;;;7.10;6.40;;;;;;;19.07;73.55;94203.28;5049872;28;20033;-73
2022/06/10 12:01:36;;;;;;;6.50;5.90;;;;;;;19.25;73.06;94201.97;5067743;28;20563;-73
2022/06/10 12:04:17;;;;;;;6.28;5.68;;;;;;;19.34;72.25;94193.72;5052782;28;20027;-73
2022/06/10 12:06:51;;;;;;;6.53;5.65;;;;;;;19.54;74.09;94188.53;5055378;28;20041;-73
2022/06/10 12:09:32;;;;;;;6.32;5.43;;;;;;;19.69;73.33;94190.22;5045586;28;20132;-73
2022/06/10 12:12:07;;;;;;;5.53;5.03;;;;;;;19.79;71.29;94183.56;5057325;28;20481;-73
2022/06/10 12:14:46;;;;;;;6.43;5.53;;;;;;;19.86;71.63;94180.94;5050112;28;20410;-73